Time;durP1;ratioP1;P1;durP2;ratioP2;P2;SDS_P1;SDS_P2;PMS_P1;PMS_P2;Temp;Humidity;BMP_temperature;BMP_pressure;BME280_temperature;BME280_humidity;BME280_pressure;Samples;Min_cycle;Max_cycle;Signal;HPM_P1;HPM_P2
2022/06/10 00:01:04;;;;;;;10.88;4.90;;;12.50;99.90;;;;;;5074434;28;20102;-65
2022/06/10 00:03:30;;;;;;;;;;;13.00;99.90;;;;;;5093270;28;20173;-65
2022/06/10 00:06:03;;;;;;;15.20;5.30;;;13.80;99.90;;;;;;5092465;28;19993;-66
2022/06/10 00:08:33;;;;;;;22.10;5.85;;;12.40;99.90;;;;;;5092889;28;20400;-65
2022/06/10 00:11:00;;;;;;;10.18;5.05;;;13.50;99.90;;;;;;5092860;28;20040;-66
2022/06/10 00:13:29;;;;;;;16.10;5.65;;;12.30;99.90;;;;;;5074172;28;20044;-65
2022/06/10 00:15:55;;;;;;;12.85;5.35;;;12.30;99.90;;;;;;5092698;28;20126;-65
2022/06/10 00:18:21;;;;;;;;;;;11.80;99.90;;;;;;5093132;28;20400;-65
2022/06/10 00:20:47;;;;;;;15.02;5.43;;;12.40;99.90;;;;;;5092631;28;19923;-69
2022/06/10 00:23:13;;;;;;;15.32;5.38;;;12.60;99.90;;;;;;5092447;28;20139;-66
2022/06/10 00:25:39;;;;;;;15.10;5.82;;;12.10;99.90;;;;;;5091244;28;20069;-66
2022/06/10 00:28:07;;;;;;;14.57;5.80;;;11.80;99.90;;;;;;5092392;28;20518;-66
2022/06/10 00:30:33;;;;;;;17.15;5.85;;;12.30;99.90;;;;;;5092123;28;20079;-67
2022/06/10 00:32:59;;;;;;;14.85;5.95;;;11.80;99.90;;;;;;5091387;28;20464;-65
2022/06/10 00:35:26;;;;;;;14.10;5.57;;;12.20;99.90;;;;;;5092367;28;20408;-64
2022/06/10 00:37:53;;;;;;;13.07;6.13;;;12.00;99.90;;;;;;5092319;28;20047;-66
2022/06/10 00:40:31;;;;;;;9.68;5.55;;;11.90;99.90;;;;;;5092140;28;20044;-65
2022/06/10 00:42:57;;;;;;;17.73;5.90;;;11.80;99.90;;;;;;5092267;28;20039;-66
2022/06/10 00:45:51;;;;;;;11.32;6.00;;;13.10;99.90;;;;;;5091793;28;20048;-69
2022/06/10 00:48:37;;;;;;;13.25;6.22;;;11.70;99.90;;;;;;5092180;28;20059;-66
2022/06/10 00:51:45;;;;;;;15.68;5.53;;;12.00;99.90;;;;;;5073780;28;20063;-66
2022/06/10 00:54:37;;;;;;;14.95;6.03;;;11.70;99.90;;;;;;5091242;28;20172;-67
2022/06/10 00:57:20;;;;;;;12.38;5.97;;;11.60;99.90;;;;;;5091540;28;20040;-66
2022/06/10 01:00:01;;;;;;;13.50;5.90;;;11.70;99.90;;;;;;5073371;28;20056;-66
2022/06/10 01:02:32;;;;;;;12.55;5.82;;;11.80;99.90;;;;;;5090996;28;20557;-67
2022/06/10 01:05:00;;;;;;;12.73;6.20;;;11.60;99.90;;;;;;5091429;28;20048;-65
2022/06/10 01:07:33;;;;;;;12.80;5.65;;;13.00;99.90;;;;;;5092001;28;20158;-67
2022/06/10 01:10:01;;;;;;;16.05;6.32;;;11.90;99.90;;;;;;5091104;28;20060;-69
2022/06/10 01:12:27;;;;;;;15.20;7.18;;;11.90;99.90;;;;;;5091025;28;20044;-68
2022/06/10 01:14:59;;;;;;;;;;;11.50;99.90;;;;;;5091524;28;20051;-65
2022/06/10 01:17:48;;;;;;;19.85;5.88;;;11.70;99.90;;;;;;5091129;28;20443;-69
2022/06/10 01:20:35;;;;;;;13.70;5.07;;;11.70;99.90;;;;;;5090892;28;20071;-65
2022/06/10 01:23:19;;;;;;;19.70;5.88;;;11.70;99.90;;;;;;5091346;28;20490;-66
2022/06/10 01:25:56;;;;;;;15.63;5.63;;;11.50;99.90;;;;;;5091005;28;20855;-66
2022/06/10 01:28:41;;;;;;;18.27;5.65;;;11.50;99.90;;;;;;5091400;28;20048;-65
2022/06/10 01:31:33;;;;;;;17.73;5.78;;;11.50;99.90;;;;;;5090802;28;20048;-65
2022/06/10 01:34:13;;;;;;;8.68;5.38;;;11.50;99.90;;;;;;5091203;28;20059;-65
2022/06/10 01:37:19;;;;;;;12.98;6.13;;;11.80;99.90;;;;;;5092921;28;20055;-64
2022/06/10 01:40:12;;;;;;;14.27;5.45;;;11.20;99.90;;;;;;5012003;28;20057;-65
2022/06/10 01:43:07;;;;;;;13.23;5.55;;;11.40;99.90;;;;;;5095265;28;20040;-65
2022/06/10 01:45:41;;;;;;;15.18;5.80;;;11.60;99.90;;;;;;5094727;28;20052;-66
2022/06/10 01:48:36;;;;;;;11.25;5.25;;;11.40;99.90;;;;;;5095025;28;20040;-66
2022/06/10 01:51:11;;;;;;;14.80;6.38;;;11.30;99.90;;;;;;5075879;28;20098;-68
2022/06/10 01:53:44;;;;;;;13.82;5.55;;;11.50;99.90;;;;;;5094612;28;20094;-67
2022/06/10 01:56:17;;;;;;;13.15;6.03;;;11.00;99.90;;;;;;5060132;28;20080;-64
2022/06/10 01:58:47;;;;;;;14.05;6.20;;;11.50;99.90;;;;;;5094735;28;20098;-64
2022/06/10 02:01:20;;;;;;;18.48;6.25;;;12.30;99.90;;;;;;5095177;28;20083;-65
2022/06/10 02:04:08;;;;;;;14.57;6.40;;;11.10;99.90;;;;;;5094464;28;20054;-65
2022/06/10 02:06:45;;;;;;;;;;;11.00;99.90;;;;;;5095155;28;20135;-64
2022/06/10 02:09:16;;;;;;;17.00;6.23;;;11.00;99.90;;;;;;5094517;28;19919;-67
2022/06/10 02:11:47;;;;;;;17.77;5.88;;;11.60;99.90;;;;;;5094367;28;20047;-64
2022/06/10 02:14:18;;;;;;;11.52;6.15;;;11.40;99.90;;;;;;5094623;28;20047;-65
2022/06/10 02:16:46;;;;;;;22.48;7.05;;;11.40;99.90;;;;;;5094795;28;20377;-65
2022/06/10 02:19:43;;;;;;;13.80;6.18;;;11.00;99.90;;;;;;5094305;28;20070;-64
2022/06/10 02:22:19;;;;;;;15.77;6.50;;;11.10;99.90;;;;;;5090476;28;20400;-65
2022/06/10 02:24:51;;;;;;;13.55;6.32;;;11.50;99.90;;;;;;5094743;28;20151;-65
2022/06/10 02:27:26;;;;;;;16.90;7.00;;;11.00;99.90;;;;;;5076147;28;20048;-65
2022/06/10 02:30:01;;;;;;;17.80;6.70;;;11.00;99.90;;;;;;5094528;28;20044;-65
2022/06/10 02:32:29;;;;;;;12.35;6.53;;;11.20;99.90;;;;;;5094463;28;20102;-66
2022/06/10 02:34:57;;;;;;;14.35;6.75;;;11.90;99.90;;;;;;5094610;28;20048;-65
2022/06/10 02:37:36;;;;;;;21.90;6.50;;;11.00;99.90;;;;;;5094467;28;20044;-65
2022/06/10 02:40:11;;;;;;;20.63;6.70;;;11.00;99.90;;;;;;5094551;28;20070;-65
2022/06/10 02:43:13;;;;;;;16.38;6.85;;;10.90;99.90;;;;;;5094448;28;20073;-64
2022/06/10 02:45:51;;;;;;;17.73;7.00;;;11.00;99.90;;;;;;5094396;28;20104;-64
2022/06/10 02:48:37;;;;;;;14.07;6.95;;;10.80;99.90;;;;;;5093236;28;20055;-65
2022/06/10 02:51:03;;;;;;;20.57;7.07;;;11.00;99.90;;;;;;5094393;28;20137;-67
2022/06/10 02:53:29;;;;;;;17.73;7.05;;;10.70;99.90;;;;;;5093979;28;20044;-65
2022/06/10 02:55:55;;;;;;;17.10;7.15;;;10.70;99.90;;;;;;5094210;28;20048;-66
2022/06/10 03:01:25;;;;;;;11.93;6.90;;;11.00;99.90;;;;;;5094076;28;20490;-64
2022/06/10 03:04:12;;;;;;;16.48;7.88;;;10.70;99.90;;;;;;5093799;28;20105;-65
2022/06/10 03:06:56;;;;;;;;;;;10.70;99.90;;;;;;5094492;28;20110;-65
2022/06/10 03:09:50;;;;;;;17.25;8.10;;;10.90;99.90;;;;;;5094024;28;19928;-64
2022/06/10 03:12:26;;;;;;;13.52;6.80;;;10.80;99.90;;;;;;5093686;28;20047;-65
2022/06/10 03:15:09;;;;;;;15.57;7.63;;;12.40;99.90;;;;;;5093391;28;20514;-65
2022/06/10 03:17:44;;;;;;;19.58;8.20;;;10.60;99.90;;;;;;5093489;28;20504;-64
2022/06/10 03:20:21;;;;;;;16.20;7.13;;;11.10;99.90;;;;;;5093671;28;20048;-64
2022/06/10 03:23:06;;;;;;;14.43;7.18;;;10.80;99.90;;;;;;5093644;28;20505;-65
2022/06/10 03:25:50;;;;;;;15.75;7.63;;;11.10;99.90;;;;;;5093739;28;20048;-65
2022/06/10 03:28:35;;;;;;;20.02;7.45;;;10.60;99.90;;;;;;5093295;28;20051;-64
2022/06/10 03:31:14;;;;;;;18.33;7.50;;;10.70;99.90;;;;;;5071600;28;20135;-64
2022/06/10 03:34:03;;;;;;;14.23;7.43;;;10.60;99.90;;;;;;5073157;28;20049;-65
2022/06/10 03:36:31;;;;;;;22.15;8.27;;;10.80;99.90;;;;;;5073180;28;20048;-65
2022/06/10 03:38:58;;;;;;;16.88;7.80;;;10.80;99.90;;;;;;5073095;28;20095;-66
2022/06/10 03:41:27;;;;;;;17.77;7.50;;;11.00;99.90;;;;;;5073158;28;20044;-65
2022/06/10 03:43:54;;;;;;;19.67;7.05;;;11.10;99.90;;;;;;5072834;28;20142;-65
2022/06/10 03:46:24;;;;;;;14.75;8.00;;;10.90;99.90;;;;;;5055296;28;20049;-64
2022/06/10 03:48:52;;;;;;;18.30;7.50;;;11.90;99.90;;;;;;5072566;28;20481;-64
2022/06/10 03:51:19;;;;;;;21.95;7.15;;;12.00;99.90;;;;;;5071507;28;20147;-67
2022/06/10 03:53:45;;;;;;;18.27;7.90;;;10.90;99.90;;;;;;5072823;28;20044;-64
2022/06/10 03:56:12;;;;;;;17.95;6.97;;;11.10;99.90;;;;;;5072809;28;20044;-64
2022/06/10 03:58:40;;;;;;;26.80;7.28;;;11.40;99.90;;;;;;5072660;28;20213;-65
2022/06/10 04:01:07;;;;;;;21.08;8.05;;;11.50;99.90;;;;;;5071220;28;20369;-64
2022/06/10 04:03:32;;;;;;;;;;;11.40;99.90;;;;;;5073104;28;20385;-65
2022/06/10 04:05:58;;;;;;;18.88;7.10;;;11.00;99.90;;;;;;5072610;28;19931;-64
2022/06/10 04:08:24;;;;;;;23.58;7.45;;;12.60;99.90;;;;;;5072621;28;20094;-65
2022/06/10 04:10:50;;;;;;;19.92;7.50;;;11.40;99.90;;;;;;5071740;28;20124;-64
2022/06/10 04:13:20;;;;;;;16.88;7.15;;;11.40;99.90;;;;;;5071497;28;20481;-65
2022/06/10 04:15:46;;;;;;;17.45;7.53;;;12.30;99.90;;;;;;5072296;28;20480;-65
2022/06/10 04:18:12;;;;;;;19.83;7.30;;;11.90;99.90;;;;;;5072378;28;20145;-65
2022/06/10 04:20:39;;;;;;;17.60;7.90;;;11.80;99.90;;;;;;5072492;28;20080;-64
2022/06/10 04:23:05;;;;;;;19.60;6.93;;;12.00;99.90;;;;;;5072398;28;20048;-65
2022/06/10 04:25:33;;;;;;;21.63;7.68;;;13.30;99.90;;;;;;5072216;28;20522;-64
2022/06/10 04:27:59;;;;;;;15.40;5.97;;;12.60;99.90;;;;;;5071667;28;20146;-67
2022/06/10 04:30:28;;;;;;;;;;;12.20;99.90;;;;;;5072433;28;20057;-65
2022/06/10 04:32:55;;;;;;;18.90;6.82;;;13.30;99.90;;;;;;5091527;28;19920;-67
2022/06/10 04:35:21;;;;;;;15.80;6.20;;;12.30;99.90;;;;;;5073838;28;20476;-67
2022/06/10 04:37:48;;;;;;;21.95;6.90;;;12.70;99.90;;;;;;5091624;28;20105;-64
2022/06/10 04:40:19;;;;;;;17.33;6.25;;;13.80;99.90;;;;;;5091521;28;20047;-66
2022/06/10 04:42:46;;;;;;;17.10;6.43;;;12.80;99.90;;;;;;5091613;28;20155;-65
2022/06/10 04:45:14;;;;;;;20.23;6.75;;;12.70;99.90;;;;;;5091286;28;20048;-65
2022/06/10 04:47:40;;;;;;;15.70;6.20;;;12.80;99.90;;;;;;5073516;28;20436;-65
2022/06/10 04:50:07;;;;;;;16.00;6.00;;;12.90;99.90;;;;;;5073719;28;20139;-67
2022/06/10 04:52:34;;;;;;;15.18;5.68;;;12.80;99.90;;;;;;5091571;28;20044;-66
2022/06/10 04:55:00;;;;;;;12.88;6.00;;;12.80;99.90;;;;;;5091293;28;20135;-65
2022/06/10 04:57:26;;;;;;;18.38;6.07;;;12.90;99.90;;;;;;5091517;28;20134;-68
2022/06/10 04:59:52;;;;;;;20.67;6.28;;;13.00;99.90;;;;;;5090854;28;20127;-65
2022/06/10 05:02:18;;;;;;;17.23;6.03;;;13.00;99.90;;;;;;5091479;28;20044;-65
2022/06/10 05:04:43;;;;;;;14.80;5.55;;;13.10;99.90;;;;;;5091730;28;20106;-67
2022/06/10 05:07:09;;;;;;;13.68;5.40;;;13.80;99.90;;;;;;5091951;28;20048;-65
2022/06/10 05:09:35;;;;;;;16.10;5.38;;;13.20;99.90;;;;;;5091425;28;20056;-66
2022/06/10 05:12:00;;;;;;;18.60;5.85;;;13.00;99.90;;;;;;5093709;28;20379;-65
2022/06/10 05:14:26;;;;;;;16.00;5.57;;;13.20;99.90;;;;;;5096137;28;20087;-66
2022/06/10 05:16:52;;;;;;;14.93;5.90;;;12.80;99.90;;;;;;5095757;28;20073;-68
2022/06/10 05:19:18;;;;;;;14.00;5.88;;;13.30;99.90;;;;;;5095143;28;20388;-66
2022/06/10 05:21:43;;;;;;;16.60;6.95;;;13.40;99.90;;;;;;5094814;28;20040;-66
2022/06/10 05:24:09;;;;;;;17.55;5.75;;;13.50;99.90;;;;;;5094846;28;20080;-65
2022/06/10 05:26:35;;;;;;;19.00;5.30;;;13.30;99.90;;;;;;5095158;28;20063;-68
2022/06/10 05:29:01;;;;;;;10.50;5.53;;;13.50;99.90;;;;;;5095412;28;20441;-65
2022/06/10 05:31:27;;;;;;;22.05;5.80;;;13.40;99.90;;;;;;5095710;28;20059;-65
2022/06/10 05:36:37;;;;;;;15.90;5.50;;;13.60;99.90;;;;;;5089107;28;20075;-65
2022/06/10 05:39:04;;;;;;;15.68;5.70;;;13.90;99.90;;;;;;5091457;28;20952;-66
2022/06/10 05:44:15;;;;;;;17.35;5.13;;;13.60;99.90;;;;;;5077429;28;20590;-65
2022/06/10 05:46:41;;;;;;;18.42;5.28;;;14.00;99.90;;;;;;5091858;28;20075;-66
2022/06/10 05:49:07;;;;;;;21.52;5.50;;;13.80;99.90;;;;;;5091900;28;20040;-69
2022/06/10 05:51:33;;;;;;;14.07;5.90;;;13.80;99.90;;;;;;5091712;28;20369;-66
2022/06/10 05:53:59;;;;;;;18.73;6.07;;;13.70;99.90;;;;;;5092177;28;20059;-67
2022/06/10 05:56:24;;;;;;;16.95;5.45;;;14.30;99.90;;;;;;5092961;28;20051;-67
2022/06/10 05:58:50;;;;;;;20.75;5.82;;;14.20;99.90;;;;;;5093173;28;20135;-68
2022/06/10 06:01:16;;;;;;;12.00;4.93;;;14.30;99.90;;;;;;5091213;28;20046;-68
2022/06/10 06:03:41;;;;;;;16.65;5.35;;;15.00;99.90;;;;;;5092198;28;20032;-66
2022/06/10 06:06:08;;;;;;;;;;;14.60;99.90;;;;;;5093222;28;20048;-67
2022/06/10 06:08:35;;;;;;;17.92;5.10;;;14.90;99.90;;;;;;5092336;28;19959;-67
2022/06/10 06:11:01;;;;;;;19.95;6.35;;;14.50;99.90;;;;;;5073435;28;20117;-69
2022/06/10 06:13:27;;;;;;;13.63;5.07;;;14.70;99.90;;;;;;5092050;28;20473;-67
2022/06/10 06:15:53;;;;;;;13.27;5.03;;;14.80;99.90;;;;;;5092255;28;20477;-66
2022/06/10 06:18:18;;;;;;;;;;;14.70;99.90;;;;;;5092646;28;20117;-66
2022/06/10 06:20:44;;;;;;;16.10;5.40;;;15.00;99.90;;;;;;5074574;28;20383;-69
2022/06/10 06:23:11;;;;;;;18.40;5.68;;;14.60;99.90;;;;;;5092866;28;20044;-66
2022/06/10 06:25:37;;;;;;;23.58;5.82;;;14.50;99.90;;;;;;5093946;28;20051;-68
2022/06/10 06:28:04;;;;;;;20.73;6.68;;;14.80;99.90;;;;;;5076688;28;20434;-67
2022/06/10 06:30:32;;;;;;;18.02;6.60;;;14.70;99.90;;;;;;5094599;28;20036;-66
2022/06/10 06:33:01;;;;;;;22.85;6.93;;;14.70;99.90;;;;;;5094645;28;20472;-67
2022/06/10 06:35:26;;;;;;;17.33;7.35;;;14.50;99.90;;;;;;5094658;28;20058;-66
2022/06/10 06:37:52;;;;;;;18.27;6.25;;;14.50;99.90;;;;;;5076448;28;20040;-66
2022/06/10 06:40:18;;;;;;;;;;;14.70;99.90;;;;;;5094939;28;20048;-66
2022/06/10 06:42:47;;;;;;;25.38;7.22;;;14.60;99.90;;;;;;5076327;28;19920;-68
2022/06/10 06:45:14;;;;;;;20.95;6.70;;;14.60;99.90;;;;;;5094503;28;20044;-66
2022/06/10 06:47:40;;;;;;;22.13;6.78;;;14.70;99.90;;;;;;5094077;28;20048;-67
2022/06/10 06:50:06;;;;;;;;;;;14.50;99.90;;;;;;5059457;28;20135;-70
2022/06/10 06:52:32;;;;;;;15.63;7.30;;;15.10;99.90;;;;;;5093694;28;20295;-66
2022/06/10 06:54:57;;;;;;;;;;;15.40;99.90;;;;;;5094736;28;20055;-67
2022/06/10 06:57:25;;;;;;;21.17;7.55;;;15.30;99.90;;;;;;5093601;28;20340;-67
2022/06/10 06:59:53;;;;;;;18.83;7.63;;;14.90;99.90;;;;;;5093450;28;20052;-67
2022/06/10 07:02:19;;;;;;;24.50;7.72;;;14.80;99.90;;;;;;5093604;28;20123;-68
2022/06/10 07:04:45;;;;;;;20.85;7.70;;;15.10;99.90;;;;;;5088225;28;20550;-67
2022/06/10 07:07:11;;;;;;;;;;;14.90;99.90;;;;;;5093563;28;20059;-68
2022/06/10 07:09:37;;;;;;;18.15;8.35;;;15.00;99.90;;;;;;5090948;28;19920;-72
2022/06/10 07:12:03;;;;;;;;;;;15.30;99.90;;;;;;5073241;28;20060;-69
2022/06/10 07:14:28;;;;;;;22.58;8.52;;;15.30;99.90;;;;;;5090257;28;20400;-67
2022/06/10 07:16:54;;;;;;;22.75;9.25;;;15.50;99.90;;;;;;5090792;28;20048;-67
2022/06/10 07:19:20;;;;;;;;;;;15.60;99.90;;;;;;5091244;28;20050;-72
2022/06/10 07:21:46;;;;;;;25.90;8.38;;;15.70;99.90;;;;;;5091133;28;19978;-69
2022/06/10 07:24:12;;;;;;;20.00;9.18;;;15.50;99.90;;;;;;5092459;28;20079;-66
2022/06/10 07:26:39;;;;;;;;;;;15.60;99.90;;;;;;5094085;28;20078;-66
2022/06/10 07:29:06;;;;;;;21.92;8.90;;;15.70;99.90;;;;;;5093619;28;20326;-68
2022/06/10 07:31:32;;;;;;;27.38;9.93;;;15.90;99.90;;;;;;5093216;28;20068;-68
2022/06/10 07:33:58;;;;;;;47.35;15.40;;;15.70;99.90;;;;;;5092929;28;20150;-66
2022/06/10 07:36:26;;;;;;;;;;;15.70;99.90;;;;;;5093886;28;20134;-70
2022/06/10 07:38:52;;;;;;;25.35;9.23;;;15.70;99.90;;;;;;5093465;28;19931;-69
2022/06/10 07:44:03;;;;;;;23.95;8.73;;;16.10;99.90;;;;;;5093308;28;20150;-68
2022/06/10 07:46:28;;;;;;;;;;;15.70;99.90;;;;;;5093628;28;20539;-69
2022/06/10 07:48:54;;;;;;;20.60;7.35;;;15.80;99.90;;;;;;5075346;28;19978;-67
2022/06/10 07:51:20;;;;;;;;;;;16.20;99.90;;;;;;5058822;28;20056;-70
2022/06/10 07:53:47;;;;;;;18.13;7.60;;;16.00;99.90;;;;;;5093019;28;19927;-70
2022/06/10 07:56:14;;;;;;;21.77;8.02;;;16.40;99.90;;;;;;5093222;28;20131;-67
2022/06/10 07:58:41;;;;;;;14.80;7.65;;;16.20;99.90;;;;;;5093029;28;20048;-67
2022/06/10 08:01:06;;;;;;;15.82;8.13;;;15.90;99.90;;;;;;5092965;28;20176;-68
2022/06/10 08:03:32;;;;;;;;;;;16.40;99.90;;;;;;5093341;28;20036;-69
2022/06/10 08:05:59;;;;;;;12.80;7.28;;;16.50;99.90;;;;;;5092596;28;20011;-69
2022/06/10 08:08:25;;;;;;;13.50;7.50;;;16.30;99.90;;;;;;5092906;28;20051;-67
2022/06/10 08:10:51;;;;;;;19.90;8.55;;;16.50;99.90;;;;;;5074807;28;20396;-68
2022/06/10 08:13:17;;;;;;;14.65;7.30;;;16.40;99.90;;;;;;5092761;28;20055;-68
2022/06/10 08:15:44;;;;;;;;;;;16.50;99.90;;;;;;5093145;28;20044;-68
2022/06/10 08:18:13;;;;;;;17.25;9.63;;;16.80;99.90;;;;;;5092577;28;20329;-66
2022/06/10 08:23:27;;;;;;;14.35;8.60;;;16.80;99.90;;;;;;5092568;28;20095;-69
2022/06/10 08:25:55;;;;;;;18.15;9.70;;;17.00;99.90;;;;;;5092586;28;20076;-68
2022/06/10 08:28:22;;;;;;;21.95;9.43;;;17.30;99.90;;;;;;5074639;28;20176;-68
2022/06/10 08:30:48;;;;;;;15.30;9.63;;;17.10;99.90;;;;;;5092339;28;20055;-69
2022/06/10 08:33:14;;;;;;;;;;;17.30;99.90;;;;;;5074423;28;20503;-67
2022/06/10 08:35:40;;;;;;;17.30;9.10;;;17.00;99.90;;;;;;5092416;28;19927;-66
2022/06/10 08:38:10;;;;;;;18.42;9.07;;;17.50;99.90;;;;;;5092578;28;20055;-68
2022/06/10 08:40:46;;;;;;;14.27;8.95;;;17.20;99.90;;;;;;5092586;28;20492;-69
2022/06/10 08:43:39;;;;;;;13.97;8.63;;;17.10;99.90;;;;;;5074459;28;20116;-69
2022/06/10 08:46:37;;;;;;;16.70;7.82;;;17.50;99.90;;;;;;5073616;28;20167;-69
2022/06/10 08:49:45;;;;;;;11.73;7.78;;;17.40;99.90;;;;;;5077327;28;20430;-69
2022/06/10 08:52:38;;;;;;;15.60;7.80;;;17.60;99.90;;;;;;5092327;28;20048;-67
2022/06/10 08:55:12;;;;;;;13.10;8.65;;;17.20;99.90;;;;;;5092148;28;20048;-68
2022/06/10 08:57:44;;;;;;;13.00;8.77;;;17.30;99.90;;;;;;5074309;28;20382;-79
2022/06/10 09:00:19;;;;;;;16.35;10.02;;;17.10;99.90;;;;;;5092237;28;20427;-67
2022/06/10 09:03:19;;;;;;;16.35;10.90;;;17.30;99.90;;;;;;5092015;28;20137;-68
2022/06/10 09:05:52;;;;;;;18.83;11.27;;;16.70;99.90;;;;;;5006194;28;20576;-66
2022/06/10 09:08:22;;;;;;;20.38;11.02;;;16.60;99.90;;;;;;5092049;28;20185;-69
2022/06/10 09:10:50;;;;;;;16.77;10.50;;;17.00;99.90;;;;;;5091836;28;20055;-67
2022/06/10 09:13:25;;;;;;;22.55;10.30;;;18.90;99.90;;;;;;5091573;28;20442;-66
2022/06/10 09:16:03;;;;;;;20.33;9.43;;;16.70;99.90;;;;;;5091878;28;20085;-67
2022/06/10 09:18:57;;;;;;;19.70;9.90;;;16.50;99.90;;;;;;5091875;28;20048;-71
2022/06/10 09:21:46;;;;;;;22.10;10.95;;;16.60;99.90;;;;;;5091660;28;20556;-68
2022/06/10 09:24:38;;;;;;;20.20;10.75;;;17.00;99.90;;;;;;5091929;28;20404;-68
2022/06/10 09:27:06;;;;;;;23.00;10.60;;;16.80;99.90;;;;;;5080642;28;20536;-70
2022/06/10 09:29:32;;;;;;;20.67;9.77;;;17.10;99.90;;;;;;5073924;28;20106;-68
2022/06/10 09:32:10;;;;;;;19.92;9.75;;;16.90;99.90;;;;;;5091091;28;20158;-68
2022/06/10 09:34:39;;;;;;;17.08;9.63;;;17.10;99.90;;;;;;5091611;28;20441;-68
2022/06/10 09:37:41;;;;;;;29.25;10.40;;;17.20;99.90;;;;;;5091693;28;20056;-71
2022/06/10 09:40:38;;;;;;;21.48;10.00;;;16.90;99.90;;;;;;5091777;28;20052;-67
2022/06/10 09:43:10;;;;;;;20.35;10.05;;;17.20;99.90;;;;;;5086759;28;20139;-69
2022/06/10 09:46:13;;;;;;;19.90;10.07;;;17.00;99.90;;;;;;5057132;28;20062;-68
2022/06/10 09:49:00;;;;;;;24.80;9.75;;;17.80;99.90;;;;;;5091546;28;20048;-67
2022/06/10 09:51:32;;;;;;;20.27;9.80;;;17.60;99.90;;;;;;5073456;28;20048;-67
2022/06/10 09:54:16;;;;;;;18.95;8.90;;;17.90;99.90;;;;;;5073678;28;20156;-73
2022/06/10 09:57:33;;;;;;;15.63;8.93;;;18.00;99.90;;;;;;5091604;28;20044;-67
2022/06/10 10:00:11;;;;;;;19.55;9.85;;;17.90;99.90;;;;;;5060618;28;20067;-68
2022/06/10 10:03:00;;;;;;;21.15;9.30;;;17.80;99.90;;;;;;5095340;28;20119;-68
2022/06/10 10:05:44;;;;;;;22.17;9.18;;;17.70;99.90;;;;;;5080007;28;20072;-67
2022/06/10 10:08:26;;;;;;;29.25;10.18;;;18.00;99.90;;;;;;5094860;28;20519;-67
2022/06/10 10:10:55;;;;;;;16.85;9.60;;;18.40;99.90;;;;;;5095195;28;20073;-68
2022/06/10 10:13:58;;;;;;;21.65;10.15;;;18.30;99.90;;;;;;5095049;28;20040;-67
2022/06/10 10:16:47;;;;;;;21.80;9.70;;;18.60;99.90;;;;;;5094837;28;20060;-69
2022/06/10 10:19:28;;;;;;;19.65;9.75;;;18.50;99.90;;;;;;5095081;28;20056;-67
2022/06/10 10:22:33;;;;;;;20.23;9.32;;;18.70;99.90;;;;;;5093093;28;20062;-70
2022/06/10 10:24:59;;;;;;;27.42;10.30;;;18.20;99.90;;;;;;5077310;28;20059;-68
2022/06/10 10:27:33;;;;;;;22.27;9.82;;;18.30;99.90;;;;;;5092759;28;20044;-68
2022/06/10 10:30:16;;;;;;;19.15;9.65;;;18.10;99.90;;;;;;5093825;28;20048;-68
2022/06/10 10:32:45;;;;;;;23.13;10.02;;;17.90;99.90;;;;;;5094250;28;20052;-67
2022/06/10 10:35:25;;;;;;;23.80;9.43;;;18.00;99.90;;;;;;5094676;28;20048;-67
2022/06/10 10:37:58;;;;;;;26.10;10.82;;;17.70;99.90;;;;;;5094750;28;20040;-66
2022/06/10 10:40:39;;;;;;;27.30;9.88;;;18.00;99.90;;;;;;5076665;28;20039;-72
2022/06/10 10:43:21;;;;;;;27.25;10.18;;;18.00;99.90;;;;;;5094624;28;20051;-68
2022/06/10 10:45:55;;;;;;;22.33;11.43;;;17.80;99.90;;;;;;5094625;28;20041;-68
2022/06/10 10:48:30;;;;;;;22.25;10.68;;;17.50;99.90;;;;;;5094066;28;20054;-68
2022/06/10 10:51:21;;;;;;;24.73;10.43;;;18.10;99.90;;;;;;5094527;28;20040;-66
2022/06/10 10:53:54;;;;;;;19.15;9.70;;;18.40;99.90;;;;;;5094553;28;20040;-67
2022/06/10 10:56:33;;;;;;;21.88;10.18;;;18.60;99.90;;;;;;5094356;28;20044;-68
2022/06/10 10:58:59;;;;;;;24.08;10.75;;;18.50;99.90;;;;;;5094264;28;20050;-66
2022/06/10 11:01:51;;;;;;;24.15;10.73;;;18.60;99.90;;;;;;5076078;28;20127;-67
2022/06/10 11:04:35;;;;;;;17.67;10.40;;;18.60;99.90;;;;;;5059537;28;20047;-70
2022/06/10 11:07:18;;;;;;;21.73;10.60;;;18.60;99.90;;;;;;5076166;28;20056;-67
2022/06/10 11:09:53;;;;;;;17.95;9.85;;;18.30;99.90;;;;;;5093092;28;20052;-69
2022/06/10 11:12:25;;;;;;;22.93;10.43;;;18.50;99.90;;;;;;5093706;28;20519;-70
2022/06/10 11:15:03;;;;;;;17.45;9.73;;;18.40;99.90;;;;;;5075806;28;20081;-69
2022/06/10 11:17:30;;;;;;;16.50;10.07;;;18.50;99.90;;;;;;5093860;28;20044;-67
2022/06/10 11:20:27;;;;;;;22.08;10.95;;;18.30;99.90;;;;;;5059250;28;20052;-70
2022/06/10 11:23:11;;;;;;;17.98;11.95;;;18.50;99.90;;;;;;5070652;28;20048;-67
2022/06/10 11:25:37;;;;;;;26.33;13.45;;;18.40;99.90;;;;;;5075764;28;20044;-68
2022/06/10 11:28:32;;;;;;;20.90;11.77;;;18.50;99.90;;;;;;5093586;28;20040;-69
2022/06/10 11:31:00;;;;;;;18.23;11.98;;;18.50;99.90;;;;;;5072737;28;20067;-68
2022/06/10 11:33:29;;;;;;;22.27;11.52;;;18.90;99.90;;;;;;5093426;28;20134;-68
2022/06/10 11:35:59;;;;;;;16.40;10.10;;;18.50;99.90;;;;;;5093462;28;20051;-69
2022/06/10 11:38:29;;;;;;;28.83;11.52;;;18.60;99.90;;;;;;5093551;28;20495;-68
2022/06/10 11:40:59;;;;;;;14.60;9.57;;;19.00;99.90;;;;;;5093392;28;20060;-68
2022/06/10 11:43:56;;;;;;;22.38;10.30;;;18.80;99.90;;;;;;5075303;28;20109;-68
2022/06/10 11:46:32;;;;;;;16.23;9.98;;;18.60;99.90;;;;;;5053505;28;20060;-68
2022/06/10 11:49:24;;;;;;;16.45;10.07;;;18.70;99.90;;;;;;5093350;28;20132;-68
2022/06/10 11:52:00;;;;;;;16.58;10.95;;;18.40;99.90;;;;;;5079501;28;20143;-68
2022/06/10 11:54:34;;;;;;;17.00;10.40;;;18.20;99.90;;;;;;5093162;28;20056;-67
2022/06/10 12:00:43;;;;;;;19.00;11.50;;;18.10;99.90;;;;;;5075088;28;20113;-68
2022/06/10 12:03:49;;;;;;;17.10;11.27;;;18.00;99.90;;;;;;5093078;28;20051;-66
2022/06/10 12:06:23;;;;;;;16.63;11.73;;;18.50;99.90;;;;;;5091765;28;20083;-68
2022/06/10 12:09:15;;;;;;;18.85;11.93;;;18.80;99.90;;;;;;5092805;28;20048;-67
2022/06/10 12:12:02;;;;;;;19.02;11.43;;;19.20;99.90;;;;;;5092815;28;20052;-67
2022/06/10 12:14:34;;;;;;;20.73;12.02;;;19.20;99.90;;;;;;5092825;28;20051;-68
2022/06/10 12:17:04;;;;;;;22.23;11.80;;;19.20;99.90;;;;;;5092846;28;20052;-68
2022/06/10 12:19:42;;;;;;;17.30;10.50;;;19.30;99.90;;;;;;5092861;28;20116;-68
2022/06/10 12:22:13;;;;;;;21.50;11.10;;;19.00;99.90;;;;;;5092601;28;20044;-68
2022/06/10 12:24:40;;;;;;;17.35;9.38;;;19.40;99.90;;;;;;5074675;28;20040;-68
2022/06/10 12:27:14;;;;;;;14.50;9.68;;;19.20;99.90;;;;;;5074691;28;20123;-68
2022/06/10 12:30:04;;;;;;;16.70;9.60;;;19.30;99.90;;;;;;5074503;28;20055;-70
2022/06/10 12:32:48;;;;;;;18.98;8.35;;;18.80;99.90;;;;;;5092034;28;20577;-72
2022/06/10 12:35:19;;;;;;;20.40;8.63;;;19.10;99.90;;;;;;5092462;28;20048;-67
2022/06/10 12:37:45;;;;;;;11.27;8.10;;;18.80;99.90;;;;;;5092430;28;20158;-69
2022/06/10 12:40:20;;;;;;;12.43;7.80;;;19.00;99.90;;;;;;5092433;28;20131;-69
2022/06/10 12:43:07;;;;;;;12.30;7.55;;;19.00;99.90;;;;;;5074350;28;20051;-68
2022/06/10 12:45:46;;;;;;;15.52;7.88;;;19.20;99.90;;;;;;5077790;28;20048;-66
2022/06/10 12:48:17;;;;;;;12.80;7.53;;;19.60;99.90;;;;;;5092665;28;20036;-66
2022/06/10 12:51:17;;;;;;;16.30;7.63;;;19.40;99.90;;;;;;5092133;28;20438;-67
2022/06/10 12:54:14;;;;;;;14.23;6.95;;;19.90;99.90;;;;;;5092485;28;20100;-67
2022/06/10 12:56:40;;;;;;;11.25;5.80;;;19.80;99.90;;;;;;5092259;28;20097;-67
2022/06/10 12:59:06;;;;;;;19.77;6.80;;;20.00;99.90;;;;;;5092096;28;20470;-69
2022/06/10 13:01:32;;;;;;;12.02;6.43;;;19.90;99.90;;;;;;5091954;28;20048;-68
2022/06/10 13:04:20;;;;;;;18.38;7.38;;;19.80;99.90;;;;;;5091750;28;20475;-67
2022/06/10 13:07:27;;;;;;;11.93;5.63;;;19.60;99.90;;;;;;5020129;28;20637;-69
2022/06/10 13:09:52;;;;;;;11.40;5.85;;;19.30;99.90;;;;;;5080641;28;20403;-68
2022/06/10 13:12:37;;;;;;;12.43;6.63;;;19.80;99.90;;;;;;5091921;28;20090;-67
2022/06/10 13:15:25;;;;;;;13.57;7.22;;;19.70;99.90;;;;;;5091890;28;20051;-68
2022/06/10 13:17:54;;;;;;;10.07;5.40;;;19.50;99.90;;;;;;5074098;28;20135;-68
2022/06/10 13:20:22;;;;;;;10.20;4.57;;;19.80;99.90;;;;;;5091830;28;20130;-68
2022/06/10 13:23:08;;;;;;;11.52;4.22;;;20.30;99.90;;;;;;5091862;28;20044;-68
2022/06/10 13:25:34;;;;;;;7.78;4.47;;;20.60;99.90;;;;;;5091838;28;20048;-69
2022/06/10 13:28:00;;;;;;;6.55;3.53;;;21.50;99.90;;;;;;5091709;28;20054;-68
2022/06/10 13:30:32;;;;;;;8.02;3.10;;;21.80;99.90;;;;;;5091636;28;20127;-69
2022/06/10 13:33:01;;;;;;;7.40;3.42;;;21.70;99.90;;;;;;5093474;28;20055;-71